Terminal Aerodrome Forecast
Issued by NWS

Home | Current Version | Previous Version | Text Only | Print | Product List | Glossary On
Versions: 1 2 3 4 5 6 7 8 9 10 11 12 13 14 15 16 17 18 19 20 21 22 23 24 25 26 27 28 29 30 31 32 33 34 35 36 37 38 39 40 41 42 43 44 45 46 47 48 49 50
000
FTUS46 KPQR 230841 AAB
TAFONP
TAF AMD
KONP 230841Z 2309/2406 13007KT P6SM -SHRA SCT025 BKN035 OVC070
      TEMPO 2309/2313 BKN025 OVC035
     FM232000 20012G18KT 4SM -RA BKN025 OVC040
     FM240000 19021G35KT 2SM RA BR BKN012 OVC020=

USA.gov is the U.S. government's official web portal to all federal, state and local government web resources and services.